Terminal Aerodrome Forecast
Issued by NWS

Home | Current Version | Previous Version | Text Only | Print | Product List | Glossary On
Versions: 1 2 3 4 5 6 7 8 9 10 11 12 13 14 15 16
000
FTUS43 KDVN 021247 AAB
TAFCID
TAF AMD
KCID 021247Z 0213/0312 21009KT P6SM VCTS SCT080CB
      TEMPO 0213/0215 4SM TSRA OVC040CB
     FM021500 24018G25KT P6SM SCT080 PROB30 0222/0302 4SM TSRA
      BKN050CB
     FM030200 25011KT P6SM SKC
     FM030600 30005KT P6SM SKC=

USA.gov is the U.S. government's official web portal to all federal, state and local government web resources and services.